createdAt,value
2022-11-10T00:00:47.296Z,2.07
2022-11-10T00:03:13.912Z,2.37
2022-11-10T00:05:40.571Z,2.53
2022-11-10T00:08:08.097Z,6.37
2022-11-10T00:10:55.757Z,4.03
2022-11-10T00:13:23.539Z,2.60
2022-11-10T00:16:08.815Z,3.50
2022-11-10T00:18:35.391Z,2.60
2022-11-10T00:21:09.156Z,3.13
2022-11-10T00:23:35.880Z,4.77
2022-11-10T00:26:02.623Z,3.53
2022-11-10T00:28:30.894Z,2.50
2022-11-10T00:30:57.919Z,3.00
2022-11-10T00:33:24.711Z,1.53
2022-11-10T00:35:51.358Z,2.33
2022-11-10T00:38:17.933Z,3.50
2022-11-10T00:40:44.490Z,4.27
2022-11-10T00:43:11.081Z,3.80
2022-11-10T00:45:39.898Z,2.67
2022-11-10T00:48:06.481Z,3.20
2022-11-10T00:50:33.067Z,2.63
2022-11-10T00:52:59.650Z,3.00
2022-11-10T00:55:26.224Z,1.87
2022-11-10T00:57:52.803Z,5.00
2022-11-10T01:00:19.432Z,3.63
2022-11-10T01:02:46.011Z,2.90
2022-11-10T01:05:12.589Z,4.70
2022-11-10T01:07:39.186Z,2.40
2022-11-10T01:10:06.263Z,4.83
2022-11-10T01:12:33.046Z,3.00
2022-11-10T01:14:59.650Z,1.47
2022-11-10T01:17:26.227Z,1.80
2022-11-10T01:19:52.799Z,2.83
2022-11-10T01:22:19.396Z,3.13
2022-11-10T01:24:45.984Z,3.00
2022-11-10T01:27:12.555Z,1.73
2022-11-10T01:29:39.158Z,2.40
2022-11-10T01:32:05.734Z,4.37
2022-11-10T01:34:32.410Z,2.93
2022-11-10T01:36:58.988Z,3.20
2022-11-10T01:39:25.581Z,2.67
2022-11-10T01:41:52.183Z,1.37
2022-11-10T01:44:21.049Z,3.57
2022-11-10T01:46:47.623Z,2.33
2022-11-10T01:49:15.811Z,2.00
2022-11-10T01:51:52.092Z,3.83
2022-11-10T01:54:29.773Z,5.27
2022-11-10T01:57:00.179Z,2.00
2022-11-10T01:59:29.085Z,2.07
2022-11-10T02:01:59.839Z,2.10
2022-11-10T02:04:26.423Z,2.60
2022-11-10T02:06:53.067Z,3.47
2022-11-10T02:09:19.672Z,1.70
2022-11-10T02:11:46.321Z,4.57
2022-11-10T02:14:13.176Z,2.27
2022-11-10T02:16:39.803Z,3.77
2022-11-10T02:19:23.325Z,3.13
2022-11-10T02:21:49.950Z,2.00
2022-11-10T02:24:16.707Z,2.50
2022-11-10T02:26:49.081Z,3.83
2022-11-10T02:29:15.715Z,3.93
2022-11-10T02:31:42.317Z,1.53
2022-11-10T02:34:08.905Z,2.40
2022-11-10T02:36:35.470Z,1.60
2022-11-10T02:39:02.065Z,3.30
2022-11-10T02:41:28.630Z,1.33
2022-11-10T02:43:55.216Z,1.87
2022-11-10T02:46:21.795Z,2.57
2022-11-10T02:48:48.367Z,4.80
2022-11-10T02:51:14.937Z,1.50
2022-11-10T02:53:41.514Z,1.93
2022-11-10T02:56:08.227Z,3.33
2022-11-10T02:58:34.808Z,1.67
2022-11-10T03:01:05.622Z,1.83
2022-11-10T03:03:32.404Z,2.03
2022-11-10T03:05:59.068Z,2.27
2022-11-10T03:08:25.680Z,3.13
2022-11-10T03:10:55.871Z,2.83
2022-11-10T03:13:23.995Z,2.40
2022-11-10T03:15:50.912Z,3.13
2022-11-10T03:18:17.621Z,3.37
2022-11-10T03:20:47.143Z,6.47
2022-11-10T03:23:13.747Z,4.13
2022-11-10T03:25:40.340Z,3.27
2022-11-10T03:28:06.905Z,2.60
2022-11-10T03:30:33.515Z,3.23
2022-11-10T03:33:00.112Z,2.40
2022-11-10T03:35:26.936Z,0.93
2022-11-10T03:37:53.566Z,2.13
2022-11-10T03:40:20.195Z,3.20
2022-11-10T03:42:46.957Z,1.97
2022-11-10T03:45:14.104Z,2.40
2022-11-10T03:47:40.744Z,3.63
2022-11-10T03:50:07.729Z,2.20
2022-11-10T03:52:34.297Z,1.67
2022-11-10T03:55:03.482Z,2.40
2022-11-10T03:57:30.408Z,2.50
2022-11-10T03:59:57.015Z,2.70
2022-11-10T04:02:23.621Z,1.47
2022-11-10T04:05:08.669Z,1.73
2022-11-10T04:07:54.098Z,3.53
2022-11-10T04:10:20.690Z,2.03
2022-11-10T04:13:05.796Z,2.27
2022-11-10T04:15:44.709Z,3.53
2022-11-10T04:18:21.215Z,3.67
2022-11-10T04:20:48.009Z,2.23
2022-11-10T04:23:26.859Z,2.03
2022-11-10T04:26:12.830Z,1.23
2022-11-10T04:28:39.642Z,1.80
2022-11-10T04:31:06.701Z,2.73
2022-11-10T04:33:33.320Z,1.53
2022-11-10T04:35:59.909Z,3.70
2022-11-10T04:38:26.479Z,2.10
2022-11-10T04:40:53.258Z,2.27
2022-11-10T04:43:20.116Z,1.30
2022-11-10T04:45:46.895Z,1.37
2022-11-10T04:48:13.476Z,3.17
2022-11-10T04:50:40.064Z,3.13
2022-11-10T04:53:06.643Z,2.00
2022-11-10T04:55:33.223Z,3.20
2022-11-10T04:57:59.805Z,3.20
2022-11-10T05:00:26.393Z,2.80
2022-11-10T05:02:52.972Z,3.20
2022-11-10T05:05:19.563Z,1.23
2022-11-10T05:07:48.430Z,2.37
2022-11-10T05:10:15.659Z,1.70
2022-11-10T05:12:42.224Z,2.27
2022-11-10T05:15:09.365Z,1.77
2022-11-10T05:17:35.950Z,3.90
2022-11-10T05:20:02.559Z,2.70
2022-11-10T05:22:29.130Z,2.60
2022-11-10T05:24:55.818Z,2.37
2022-11-10T05:27:22.440Z,1.90
2022-11-10T05:29:49.019Z,2.37
2022-11-10T05:32:15.585Z,2.50
2022-11-10T05:34:42.171Z,3.10
2022-11-10T05:37:08.739Z,2.43
2022-11-10T05:39:35.325Z,2.47
2022-11-10T05:42:01.919Z,2.57
2022-11-10T05:44:28.512Z,2.33
2022-11-10T05:46:55.108Z,1.43
2022-11-10T05:49:21.704Z,1.97
2022-11-10T05:51:48.555Z,1.77
2022-11-10T05:54:15.451Z,0.87
2022-11-10T05:56:42.038Z,1.27
2022-11-10T05:59:08.624Z,2.10
2022-11-10T06:01:35.211Z,3.60
2022-11-10T06:04:01.890Z,1.47
2022-11-10T06:06:28.512Z,2.87
2022-11-10T06:08:56.385Z,3.73
2022-11-10T06:11:23.280Z,1.83
2022-11-10T06:13:49.872Z,1.87
2022-11-10T06:16:16.455Z,1.87
2022-11-10T06:18:43.061Z,1.57
2022-11-10T06:21:09.637Z,2.13
2022-11-10T06:23:36.233Z,1.43
2022-11-10T06:26:02.895Z,1.43
2022-11-10T06:28:29.482Z,1.30
2022-11-10T06:30:57.934Z,1.10
2022-11-10T06:33:24.703Z,2.70
2022-11-10T06:35:53.043Z,3.20
2022-11-10T06:38:19.619Z,4.60
2022-11-10T06:40:46.217Z,1.90
2022-11-10T06:43:12.797Z,0.93
2022-11-10T06:45:39.368Z,5.20
2022-11-10T06:48:13.667Z,2.23
2022-11-10T06:50:40.255Z,1.70
2022-11-10T06:53:06.831Z,1.90
2022-11-10T06:55:33.441Z,3.37
2022-11-10T06:58:00.041Z,2.37
2022-11-10T07:00:28.983Z,3.33
2022-11-10T07:03:02.688Z,2.83
2022-11-10T07:05:29.691Z,1.90
2022-11-10T07:07:56.285Z,1.43
2022-11-10T07:10:22.878Z,2.23
2022-11-10T07:12:55.137Z,1.80
2022-11-10T07:15:21.733Z,3.30
2022-11-10T07:17:48.299Z,2.93
2022-11-10T07:20:15.214Z,7.63
2022-11-10T07:22:41.795Z,4.23
2022-11-10T07:25:08.682Z,1.50
2022-11-10T07:27:35.255Z,1.87
2022-11-10T07:30:01.843Z,3.50
2022-11-10T07:32:28.422Z,2.40
2022-11-10T07:34:55.005Z,12.57
2022-11-10T07:37:21.577Z,6.73
2022-11-10T07:39:48.159Z,7.83
2022-11-10T07:42:15.104Z,5.23
2022-11-10T07:44:41.888Z,7.60
2022-11-10T07:47:08.505Z,4.90
2022-11-10T07:49:35.099Z,4.67
2022-11-10T07:52:01.667Z,2.83
2022-11-10T07:54:28.246Z,7.73
2022-11-10T07:56:54.814Z,12.37
2022-11-10T07:59:21.389Z,10.73
2022-11-10T08:01:48.024Z,10.33
2022-11-10T08:04:14.633Z,12.73
2022-11-10T08:06:41.309Z,8.93
2022-11-10T08:09:07.975Z,5.07
2022-11-10T08:11:34.553Z,8.03
2022-11-10T08:14:01.165Z,4.73
2022-11-10T08:16:27.750Z,8.13
2022-11-10T08:18:54.372Z,4.33
2022-11-10T08:21:20.938Z,6.43
2022-11-10T08:23:47.517Z,4.50
2022-11-10T08:26:16.562Z,4.80
2022-11-10T08:28:44.141Z,4.00
2022-11-10T08:31:10.705Z,5.10
2022-11-10T08:33:37.393Z,6.77
2022-11-10T08:36:04.083Z,4.10
2022-11-10T08:38:30.678Z,5.73
2022-11-10T08:40:57.556Z,4.30
2022-11-10T08:43:24.655Z,4.73
2022-11-10T08:45:54.348Z,2.60
2022-11-10T08:48:20.988Z,3.73
2022-11-10T08:50:47.753Z,3.77
2022-11-10T08:53:15.814Z,4.63
2022-11-10T08:55:42.898Z,3.87
2022-11-10T08:58:17.467Z,5.00
2022-11-10T09:00:44.220Z,5.33
2022-11-10T09:03:22.717Z,4.07
2022-11-10T09:05:55.086Z,6.77
2022-11-10T09:08:24.448Z,3.77
2022-11-10T09:10:51.112Z,6.07
2022-11-10T09:13:17.810Z,4.63
2022-11-10T09:15:44.566Z,4.60
2022-11-10T09:18:12.309Z,5.50
2022-11-10T09:20:38.902Z,19.30
2022-11-10T09:23:18.825Z,5.87
2022-11-10T09:25:52.880Z,5.17
2022-11-10T09:28:19.843Z,10.83
2022-11-10T09:30:47.180Z,6.83
2022-11-10T09:33:13.810Z,8.90
2022-11-10T09:35:40.568Z,6.23
2022-11-10T09:38:07.261Z,4.60
2022-11-10T09:40:59.077Z,7.87
2022-11-10T09:43:57.888Z,5.97
2022-11-10T09:46:26.619Z,8.67
2022-11-10T09:49:26.424Z,9.10
2022-11-10T09:51:53.268Z,10.67
2022-11-10T09:54:28.821Z,9.47
2022-11-10T09:56:56.776Z,5.90
2022-11-10T09:59:30.374Z,8.17
2022-11-10T10:02:19.951Z,6.40
2022-11-10T10:05:24.174Z,8.70
2022-11-10T10:08:09.232Z,9.37
2022-11-10T10:10:49.153Z,8.77
2022-11-10T10:13:56.745Z,13.67
2022-11-10T10:16:26.368Z,6.67
2022-11-10T10:19:13.218Z,8.17
2022-11-10T10:21:54.803Z,12.13
2022-11-10T10:24:22.397Z,6.67
2022-11-10T10:26:53.818Z,8.73
2022-11-10T10:29:23.311Z,10.30
2022-11-10T10:31:52.896Z,10.63
2022-11-10T10:34:24.152Z,9.87
2022-11-10T10:36:50.752Z,11.07
2022-11-10T10:39:26.361Z,10.17
2022-11-10T10:41:52.967Z,8.03
2022-11-10T10:44:19.749Z,7.67
2022-11-10T10:46:57.221Z,13.47
2022-11-10T10:49:30.938Z,8.37
2022-11-10T10:52:11.593Z,11.03
2022-11-10T10:54:38.718Z,10.33
2022-11-10T10:57:22.874Z,5.80
2022-11-10T10:59:49.874Z,6.87
2022-11-10T11:02:27.365Z,11.53
2022-11-10T11:05:16.727Z,10.93
2022-11-10T11:08:00.686Z,10.07
2022-11-10T11:10:29.378Z,6.20
2022-11-10T11:13:00.962Z,9.37
2022-11-10T11:15:29.140Z,8.20
2022-11-10T11:18:00.302Z,11.07
2022-11-10T11:20:37.816Z,10.43
2022-11-10T11:23:36.399Z,7.90
2022-11-10T11:26:19.787Z,10.97
2022-11-10T11:28:58.622Z,13.37
2022-11-10T11:31:42.879Z,13.73
2022-11-10T11:34:32.766Z,10.30
2022-11-10T11:37:08.669Z,11.20
2022-11-10T11:40:20.805Z,9.47
2022-11-10T11:43:00.783Z,7.33
2022-11-10T11:45:33.113Z,7.77
2022-11-10T11:48:17.579Z,12.50
2022-11-10T11:50:51.827Z,12.47
2022-11-10T11:53:39.472Z,9.33
2022-11-10T11:56:22.878Z,9.30
2022-11-10T11:59:18.354Z,10.40
2022-11-10T12:02:03.629Z,6.13
2022-11-10T12:04:52.613Z,7.13
2022-11-10T12:07:35.511Z,6.40
2022-11-10T12:10:31.202Z,7.83
2022-11-10T12:13:12.075Z,7.03
2022-11-10T12:15:53.294Z,6.07
2022-11-10T12:18:35.004Z,6.53
2022-11-10T12:21:39.199Z,4.60
2022-11-10T12:24:24.469Z,6.83
2022-11-10T12:26:59.274Z,6.27
2022-11-10T12:29:40.895Z,7.50
2022-11-10T12:32:20.571Z,5.97
2022-11-10T12:35:14.059Z,9.33
2022-11-10T12:38:08.299Z,7.43
2022-11-10T12:40:41.846Z,5.40
2022-11-10T12:43:48.348Z,6.37
2022-11-10T12:46:14.932Z,8.48
2022-11-10T12:49:08.953Z,12.97
2022-11-10T12:51:55.420Z,9.53
2022-11-10T12:54:22.023Z,6.47
2022-11-10T12:56:56.592Z,5.83
2022-11-10T12:59:36.335Z,6.07
2022-11-10T13:02:05.809Z,5.50
2022-11-10T13:04:32.406Z,5.87
2022-11-10T13:07:00.741Z,4.57
2022-11-10T13:09:35.259Z,4.53
2022-11-10T13:12:10.609Z,5.93
2022-11-10T13:14:38.319Z,5.07
2022-11-10T13:17:04.938Z,7.73
2022-11-10T13:19:34.458Z,4.50
2022-11-10T13:22:01.086Z,9.20
2022-11-10T13:24:32.396Z,4.23
2022-11-10T13:27:10.556Z,4.70
2022-11-10T13:29:43.178Z,8.47
2022-11-10T13:32:15.468Z,4.20
2022-11-10T13:34:43.038Z,5.00
2022-11-10T13:37:46.320Z,7.23
2022-11-10T13:40:25.067Z,6.77
2022-11-10T13:42:57.345Z,5.50
2022-11-10T13:45:38.472Z,5.60
2022-11-10T13:48:14.315Z,15.33
2022-11-10T13:51:07.190Z,7.67
2022-11-10T13:53:56.623Z,15.98
2022-11-10T13:56:42.031Z,5.23
2022-11-10T13:59:21.534Z,4.10
2022-11-10T14:01:48.123Z,9.27
2022-11-10T14:04:41.028Z,7.17
2022-11-10T14:07:16.156Z,7.57
2022-11-10T14:09:48.191Z,4.93
2022-11-10T14:12:30.793Z,6.37
2022-11-10T14:15:12.535Z,7.50
2022-11-10T14:17:46.681Z,5.80
2022-11-10T14:20:24.893Z,6.63
2022-11-10T14:22:51.631Z,6.53
2022-11-10T14:25:24.849Z,7.00
2022-11-10T14:27:56.706Z,6.33
2022-11-10T14:30:28.850Z,5.57
2022-11-10T14:33:03.957Z,8.23
2022-11-10T14:35:44.639Z,5.33
2022-11-10T14:38:22.245Z,6.30
2022-11-10T14:40:49.626Z,3.67
2022-11-10T14:43:34.258Z,3.97
2022-11-10T14:46:01.170Z,3.87
2022-11-10T14:48:29.557Z,4.30
2022-11-10T14:51:03.523Z,5.47
2022-11-10T14:53:39.195Z,6.67
2022-11-10T14:56:07.221Z,5.97
2022-11-10T14:58:37.741Z,7.13
2022-11-10T15:01:04.787Z,3.43
2022-11-10T15:03:41.439Z,4.83
2022-11-10T15:06:10.855Z,4.13
2022-11-10T15:08:37.745Z,4.63
2022-11-10T15:11:04.339Z,6.63
2022-11-10T15:13:31.922Z,6.10
2022-11-10T15:16:25.484Z,8.33
2022-11-10T15:18:53.525Z,4.33
2022-11-10T15:21:21.350Z,4.97
2022-11-10T15:23:53.008Z,4.60
2022-11-10T15:26:26.408Z,5.43
2022-11-10T15:28:53.001Z,5.60
2022-11-10T15:31:29.895Z,4.70
2022-11-10T15:34:01.132Z,4.13
2022-11-10T15:36:32.469Z,3.27
2022-11-10T15:39:15.463Z,5.43
2022-11-10T15:41:48.942Z,3.87
2022-11-10T15:44:16.679Z,4.80
2022-11-10T15:46:43.351Z,4.47
2022-11-10T15:49:30.441Z,3.40
2022-11-10T15:52:01.628Z,5.43
2022-11-10T15:54:30.137Z,6.70
2022-11-10T15:56:56.710Z,4.90
2022-11-10T15:59:23.290Z,5.13
2022-11-10T16:01:49.937Z,3.20
2022-11-10T16:04:16.574Z,4.77
2022-11-10T16:06:43.202Z,6.33
2022-11-10T16:09:11.103Z,4.57
2022-11-10T16:11:37.743Z,4.10
2022-11-10T16:14:04.542Z,4.70
2022-11-10T16:16:31.390Z,3.93
2022-11-10T16:18:57.988Z,4.50
2022-11-10T16:21:25.344Z,2.77
2022-11-10T16:23:52.623Z,5.40
2022-11-10T16:26:21.313Z,3.27
2022-11-10T16:28:47.900Z,4.37
2022-11-10T16:31:18.338Z,4.37
2022-11-10T16:33:46.074Z,5.37
2022-11-10T16:36:28.838Z,7.03
2022-11-10T16:38:55.508Z,3.27
2022-11-10T16:41:22.166Z,6.53
2022-11-10T16:43:48.822Z,7.70
2022-11-10T16:46:23.935Z,3.83
2022-11-10T16:49:00.600Z,5.47
2022-11-10T16:51:29.058Z,3.60
2022-11-10T16:53:55.670Z,3.97
2022-11-10T16:56:23.030Z,7.80
2022-11-10T16:58:49.597Z,5.10
2022-11-10T17:01:20.747Z,8.80
2022-11-10T17:03:49.292Z,4.90
2022-11-10T17:06:15.938Z,3.17
2022-11-10T17:08:42.678Z,5.27
2022-11-10T17:11:09.438Z,3.27
2022-11-10T17:13:36.079Z,4.50
2022-11-10T17:16:14.818Z,5.17
2022-11-10T17:18:41.395Z,5.00
2022-11-10T17:21:07.965Z,2.37
2022-11-10T17:23:35.356Z,3.93
2022-11-10T17:26:02.014Z,3.17
2022-11-10T17:28:28.577Z,3.70
2022-11-10T17:30:56.187Z,4.37
2022-11-10T17:33:22.932Z,2.20
2022-11-10T17:35:50.658Z,4.10
2022-11-10T17:38:27.928Z,4.33
2022-11-10T17:40:54.510Z,3.53
2022-11-10T17:43:21.603Z,6.77
2022-11-10T17:45:48.378Z,4.80
2022-11-10T17:48:15.001Z,3.20
2022-11-10T17:50:42.391Z,3.57
2022-11-10T17:53:25.440Z,3.63
2022-11-10T17:55:52.328Z,3.93
2022-11-10T17:58:19.005Z,2.40
2022-11-10T18:00:45.767Z,3.33
2022-11-10T18:03:16.714Z,3.50
2022-11-10T18:05:43.564Z,5.27
2022-11-10T18:08:10.827Z,3.93
2022-11-10T18:10:43.486Z,4.60
2022-11-10T18:13:10.688Z,4.47
2022-11-10T18:15:40.636Z,2.67
2022-11-10T18:18:10.545Z,2.40
2022-11-10T18:20:37.131Z,10.03
2022-11-10T18:23:04.031Z,4.10
2022-11-10T18:25:30.618Z,2.57
2022-11-10T18:27:57.189Z,3.57
2022-11-10T18:30:23.783Z,2.97
2022-11-10T18:32:50.364Z,5.07
2022-11-10T18:35:17.757Z,2.07
2022-11-10T18:37:44.348Z,5.30
2022-11-10T18:40:11.495Z,3.13
2022-11-10T18:42:38.109Z,3.47
2022-11-10T18:45:05.033Z,3.40
2022-11-10T18:47:31.667Z,4.40
2022-11-10T18:49:58.242Z,2.90
2022-11-10T18:52:24.841Z,5.23
2022-11-10T18:54:51.451Z,3.00
2022-11-10T18:57:18.026Z,2.17
2022-11-10T18:59:44.829Z,3.43
2022-11-10T19:02:11.842Z,5.93
2022-11-10T19:04:38.481Z,2.43
2022-11-10T19:07:05.288Z,2.80
2022-11-10T19:09:32.108Z,5.70
2022-11-10T19:11:58.737Z,3.70
2022-11-10T19:14:25.307Z,1.83
2022-11-10T19:16:51.894Z,3.83
2022-11-10T19:19:18.457Z,1.50
2022-11-10T19:21:45.043Z,1.97
2022-11-10T19:24:11.611Z,3.37
2022-11-10T19:26:38.453Z,4.37
2022-11-10T19:29:05.326Z,1.93
2022-11-10T19:31:31.907Z,2.80
2022-11-10T19:33:58.552Z,2.20
2022-11-10T19:36:26.302Z,1.43
2022-11-10T19:38:56.151Z,3.53
2022-11-10T19:41:27.360Z,5.23
2022-11-10T19:43:54.061Z,3.73
2022-11-10T19:46:25.038Z,3.70
2022-11-10T19:48:51.706Z,4.10
2022-11-10T19:51:18.711Z,2.10
2022-11-10T19:53:46.538Z,3.03
2022-11-10T19:56:15.506Z,2.90
2022-11-10T19:58:43.226Z,4.03
2022-11-10T20:01:10.538Z,1.73
2022-11-10T20:03:37.346Z,2.97
2022-11-10T20:06:06.035Z,3.03
2022-11-10T20:08:32.646Z,4.07
2022-11-10T20:11:09.760Z,2.03
2022-11-10T20:13:36.529Z,1.30
2022-11-10T20:16:04.571Z,3.20
2022-11-10T20:18:31.199Z,4.73
2022-11-10T20:21:05.258Z,2.80
2022-11-10T20:23:31.887Z,2.53
2022-11-10T20:26:06.300Z,1.87
2022-11-10T20:28:35.674Z,3.23
2022-11-10T20:31:02.533Z,2.97
2022-11-10T20:33:29.757Z,3.00
2022-11-10T20:35:56.398Z,2.10
2022-11-10T20:38:22.972Z,1.90
2022-11-10T20:40:49.548Z,2.60
2022-11-10T20:43:16.113Z,3.70
2022-11-10T20:45:42.731Z,9.67
2022-11-10T20:48:09.307Z,3.77
2022-11-10T20:50:38.531Z,4.13
2022-11-10T20:53:05.725Z,3.57
2022-11-10T20:55:52.539Z,2.75
2022-11-10T20:58:19.051Z,3.20
2022-11-10T21:00:45.625Z,5.50
2022-11-10T21:03:12.190Z,1.37
2022-11-10T21:05:38.773Z,4.00
2022-11-10T21:08:05.395Z,2.90
2022-11-10T21:10:31.958Z,5.93
2022-11-10T21:12:58.534Z,1.90
2022-11-10T21:15:25.153Z,5.17
2022-11-10T21:17:51.739Z,4.77
2022-11-10T21:20:18.387Z,3.73
2022-11-10T21:22:44.980Z,4.17
2022-11-10T21:25:11.547Z,1.70
2022-11-10T21:27:38.137Z,3.33
2022-11-10T21:30:06.846Z,1.97
2022-11-10T21:32:35.524Z,2.50
2022-11-10T21:35:02.107Z,3.93
2022-11-10T21:37:28.711Z,2.67
2022-11-10T21:39:55.747Z,2.53
2022-11-10T21:42:23.298Z,3.03
2022-11-10T21:44:49.861Z,5.90
2022-11-10T21:47:16.499Z,3.97
2022-11-10T21:49:43.073Z,2.63
2022-11-10T21:52:10.143Z,2.40
2022-11-10T21:54:36.747Z,4.60
2022-11-10T21:57:03.378Z,4.03
2022-11-10T21:59:29.941Z,2.83
2022-11-10T22:01:56.557Z,3.83
2022-11-10T22:04:23.179Z,2.20
2022-11-10T22:07:08.208Z,5.03
2022-11-10T22:09:53.614Z,9.57
2022-11-10T22:12:38.925Z,6.70
2022-11-10T22:15:24.809Z,5.23
2022-11-10T22:18:10.119Z,4.53
2022-11-10T22:20:36.695Z,5.23
2022-11-10T22:23:03.290Z,5.63
2022-11-10T22:25:29.868Z,5.07
2022-11-10T22:27:57.260Z,5.60
2022-11-10T22:30:23.822Z,7.77
2022-11-10T22:32:50.420Z,4.07
2022-11-10T22:35:36.946Z,7.03
2022-11-10T22:38:05.250Z,5.27
2022-11-10T22:40:50.782Z,6.77
2022-11-10T22:43:36.094Z,7.47
2022-11-10T22:46:02.828Z,5.47
2022-11-10T22:48:32.913Z,4.43
2022-11-10T22:51:00.055Z,5.47
2022-11-10T22:53:26.853Z,8.20
2022-11-10T22:55:53.417Z,8.10
2022-11-10T22:58:20.011Z,3.33
2022-11-10T23:00:46.800Z,9.33
2022-11-10T23:03:14.247Z,4.47
2022-11-10T23:05:40.831Z,6.70
2022-11-10T23:08:07.442Z,4.77
2022-11-10T23:10:34.158Z,4.00
2022-11-10T23:13:00.806Z,4.53
2022-11-10T23:15:27.427Z,4.30
2022-11-10T23:17:54.836Z,5.67
2022-11-10T23:20:21.440Z,5.40
2022-11-10T23:22:48.010Z,6.40
2022-11-10T23:25:14.591Z,6.77
2022-11-10T23:27:41.166Z,5.20
2022-11-10T23:30:08.218Z,2.53
2022-11-10T23:32:34.831Z,4.77
2022-11-10T23:35:01.427Z,3.63
2022-11-10T23:37:28.032Z,3.93
2022-11-10T23:39:54.621Z,4.37
2022-11-10T23:42:21.217Z,3.77
2022-11-10T23:44:47.837Z,4.13
2022-11-10T23:47:14.413Z,4.93
2022-11-10T23:49:40.979Z,3.07
2022-11-10T23:52:07.555Z,5.43
2022-11-10T23:54:34.125Z,4.70
2022-11-10T23:57:00.979Z,4.77
2022-11-10T23:59:27.610Z,5.60
